Wunstorf, Germany

7:37 AM CET on March 05, 2015 (GMT +0100)
Wunstorf Air Base | Change Station
CLOSE
Current Station
Airport
Location: Wunstorf,
Elevation: 187 ft
Nearby Weather Stations

Elev 187 ft 52.46 °N, 9.43 °E | Updated 17 minutes ago

Mostly Cloudy
Mostly Cloudy
37 °F
Feels Like 30 °F
N
12
Wind Variable Wind from West

Today
High -- | Low -- °F
--% Chance of Precip.
Yesterday
High -- | Low -- °F
Precip. -- in
7:00 AM 6:07 PM
Full, 100% visible
Pressure 30.54 in
Visibility 3.1 miles
Clouds Mostly Cloudy 500 ft
Windchill 30 °F
Dew Point 36 °F
Humidity 93%
Rainfall 0.00 in
Snow Depth Not available.
UV 0 out of 12
Pollen Not available.
Air Quality Not available.
Flu Activity Not available.
METAR ETNW 050620Z 28010KT 5000 BR BKN005 03/02 Q1034 YLO GRN TEMPO YLO

More Conditions Fewer Conditions

Pressure 30.54 in
Visibility 3.1 miles
Clouds Mostly Cloudy 500 ft
Windchill 30 °F
Dew Point 36 °F
Humidity 93%
Rainfall 0.00 in
Snow Depth Not available.
UV 0 out of 12
Pollen Not available.
Air Quality Not available.
Flu Activity Not available.
METAR ETNW 050620Z 28010KT 5000 BR BKN005 03/02 Q1034 YLO GRN TEMPO YLO

More Conditions Fewer Conditions

10-Day Weather Forecast

Almanac

Astronomy

Mar. 05, 2015 Rise Set
Actual Time
Civil Twilight
Nautical Twilight
Astronomical Twilight
Moon
Length of Visible Light
Length of Day
Tomorrow will be .
, % of the Moon is Illuminated

Today's Extremes

Country Highs Country Lows

Community

WunderPhotos

Upload Photos

1,802,689 photos uploaded!

WunderBlogs® & News

Nearby

Air Quality

  Air Quality AQ Index Pollutant
Not available.

Snow Depth

Station Depth Elevation

Earthquake Activity

City Distance Mag. Time & Date
Minimum magnitude displayed is 2.5.

Coastal Water Temperatures

Place Temperature

Nearby Weather Stations